Time;durP1;ratioP1;P1;durP2;ratioP2;P2;SDS_P1;SDS_P2;PMS_P1;PMS_P2;Temp;Humidity;BMP_temperature;BMP_pressure;BME280_temperature;BME280_humidity;BME280_pressure;Samples;Min_cycle;Max_cycle;Signal;HPM_P1;HPM_P2
2021/05/16 00:00:44;;;;;;;450.65;299.35;;;;;;;;;;5033338;28;20441;-80
2021/05/16 00:03:10;;;;;;;447.60;295.70;;;;;;;;;;5031575;28;20064;-82
2021/05/16 00:05:36;;;;;;;444.60;296.98;;;;;;;;;;5032352;28;20037;-82
2021/05/16 00:08:02;;;;;;;445.45;294.17;;;;;;;;;;5051560;28;20025;-81
2021/05/16 00:10:28;;;;;;;450.02;301.83;;;;;;;;;;5049974;28;20086;-82
2021/05/16 00:12:55;;;;;;;446.88;293.88;;;;;;;;;;5035603;28;20033;-79
2021/05/16 00:15:22;;;;;;;448.63;293.88;;;;;;;;;;5032018;28;20037;-80
2021/05/16 00:17:48;;;;;;;449.38;301.95;;;;;;;;;;5032554;28;20029;-81
2021/05/16 00:20:16;;;;;;;453.10;294.73;;;;;;;;;;5037942;28;20029;-81
2021/05/16 00:22:42;;;;;;;451.05;297.35;;;;;;;;;;5025602;28;20032;-81
2021/05/16 00:25:10;;;;;;;455.02;298.42;;;;;;;;;;5019642;28;20033;-80
2021/05/16 00:27:36;;;;;;;462.77;306.08;;;;;;;;;;5033629;28;20025;-81
2021/05/16 00:30:03;;;;;;;462.45;302.25;;;;;;;;;;5038783;28;20384;-81
2021/05/16 00:32:29;;;;;;;467.67;303.92;;;;;;;;;;5031590;28;20052;-82
2021/05/16 00:34:57;;;;;;;477.90;309.25;;;;;;;;;;5031326;28;20436;-82
2021/05/16 00:37:23;;;;;;;490.00;315.23;;;;;;;;;;5042476;28;20087;-81
2021/05/16 00:39:49;;;;;;;503.40;322.60;;;;;;;;;;5033316;28;20485;-80
2021/05/16 00:42:15;;;;;;;494.92;318.38;;;;;;;;;;5032576;28;20512;-81
2021/05/16 00:45:00;;;;;;;524.50;332.85;;;;;;;;;;5029207;28;20037;-81
2021/05/16 00:47:26;;;;;;;494.38;311.02;;;;;;;;;;5044065;28;20032;-82
2021/05/16 00:49:54;;;;;;;541.85;354.42;;;;;;;;;;5014805;28;20033;-81
2021/05/16 00:52:20;;;;;;;523.92;331.23;;;;;;;;;;5030854;28;20029;-80
2021/05/16 00:54:46;;;;;;;552.88;346.17;;;;;;;;;;5025822;28;20029;-81
2021/05/16 00:57:12;;;;;;;567.70;356.73;;;;;;;;;;5028421;28;20063;-81
2021/05/16 00:59:38;;;;;;;540.50;344.75;;;;;;;;;;5032126;28;20017;-81
2021/05/16 01:02:05;;;;;;;545.33;341.55;;;;;;;;;;5028916;28;20029;-81
2021/05/16 01:04:31;;;;;;;528.72;337.50;;;;;;;;;;5049282;28;20086;-81
2021/05/16 01:06:58;;;;;;;565.83;356.42;;;;;;;;;;5031614;28;20488;-81
2021/05/16 01:09:24;;;;;;;561.53;362.15;;;;;;;;;;5031009;28;20032;-81
2021/05/16 01:11:51;;;;;;;558.08;351.73;;;;;;;;;;5032421;28;20032;-81
2021/05/16 01:14:31;;;;;;;556.55;352.77;;;;;;;;;;5049405;28;20396;-81
2021/05/16 01:16:57;;;;;;;557.50;357.02;;;;;;;;;;5049717;28;20461;-81
2021/05/16 01:19:23;;;;;;;561.08;351.27;;;;;;;;;;5048670;28;20028;-82
2021/05/16 01:21:51;;;;;;;593.38;369.98;;;;;;;;;;5027572;28;20384;-81
2021/05/16 01:24:18;;;;;;;592.60;360.10;;;;;;;;;;5031291;28;20028;-81
2021/05/16 01:26:48;;;;;;;501.92;321.55;;;;;;;;;;5031095;28;20033;-82
2021/05/16 01:29:14;;;;;;;601.30;384.58;;;;;;;;;;5029485;28;20045;-81
2021/05/16 01:31:40;;;;;;;570.22;359.42;;;;;;;;;;5029550;28;20370;-82
2021/05/16 01:34:07;;;;;;;602.60;376.25;;;;;;;;;;5025988;28;20032;-81
2021/05/16 01:36:34;;;;;;;591.65;368.90;;;;;;;;;;5031468;28;20076;-81
2021/05/16 01:39:00;;;;;;;573.35;361.00;;;;;;;;;;5022348;28;20021;-81
2021/05/16 01:41:26;;;;;;;575.45;353.63;;;;;;;;;;5019497;28;20033;-81
2021/05/16 01:43:54;;;;;;;592.72;362.67;;;;;;;;;;5021370;28;20033;-82
2021/05/16 01:46:20;;;;;;;597.47;379.35;;;;;;;;;;5031092;28;20047;-82
2021/05/16 01:48:46;;;;;;;599.17;375.38;;;;;;;;;;5032228;28;20112;-81
2021/05/16 01:51:31;;;;;;;582.95;361.50;;;;;;;;;;5030734;28;20036;-81
2021/05/16 01:53:57;;;;;;;574.13;353.02;;;;;;;;;;5038212;28;20028;-82
2021/05/16 01:56:28;;;;;;;593.70;375.15;;;;;;;;;;5030527;28;20041;-82
2021/05/16 01:58:55;;;;;;;598.25;379.92;;;;;;;;;;5032629;28;20044;-81
2021/05/16 02:01:21;;;;;;;570.92;357.25;;;;;;;;;;5031314;28;20027;-83
2021/05/16 02:03:48;;;;;;;591.42;377.75;;;;;;;;;;5011479;28;20028;-82
2021/05/16 02:06:14;;;;;;;603.78;378.95;;;;;;;;;;5011306;28;20116;-81
2021/05/16 02:08:41;;;;;;;573.47;356.27;;;;;;;;;;5027604;28;20030;-83
2021/05/16 02:11:08;;;;;;;584.45;365.13;;;;;;;;;;5028257;28;20033;-82
2021/05/16 02:13:41;;;;;;;578.10;371.40;;;;;;;;;;5047317;28;20029;-82
2021/05/16 02:16:07;;;;;;;584.60;366.95;;;;;;;;;;5032690;28;20056;-83
2021/05/16 02:18:33;;;;;;;564.15;352.60;;;;;;;;;;5036514;28;20479;-84
2021/05/16 02:21:00;;;;;;;566.70;364.17;;;;;;;;;;5036692;28;20478;-84
2021/05/16 02:23:26;;;;;;;564.05;363.38;;;;;;;;;;5030267;28;20164;-82
2021/05/16 02:25:52;;;;;;;543.47;339.48;;;;;;;;;;5032782;28;20473;-81
2021/05/16 02:28:18;;;;;;;525.58;326.90;;;;;;;;;;5031052;28;20029;-84
2021/05/16 02:30:45;;;;;;;531.63;346.13;;;;;;;;;;5031689;28;20056;-84
2021/05/16 02:33:11;;;;;;;543.03;347.10;;;;;;;;;;5029540;28;20044;-84
2021/05/16 02:35:37;;;;;;;537.10;347.40;;;;;;;;;;5047509;28;20411;-85
2021/05/16 02:38:03;;;;;;;542.20;355.98;;;;;;;;;;5029825;28;20025;-86
2021/05/16 02:40:30;;;;;;;531.42;343.52;;;;;;;;;;5038660;28;20048;-83
2021/05/16 02:42:56;;;;;;;529.78;340.30;;;;;;;;;;5021305;28;20018;-84
2021/05/16 02:45:22;;;;;;;535.58;339.13;;;;;;;;;;5029892;28;20029;-84
2021/05/16 02:47:48;;;;;;;535.65;335.80;;;;;;;;;;5031186;28;20400;-85
2021/05/16 02:50:15;;;;;;;526.78;334.17;;;;;;;;;;5031255;28;20025;-84
2021/05/16 02:52:41;;;;;;;534.83;333.83;;;;;;;;;;5050337;28;20538;-85
2021/05/16 02:55:07;;;;;;;534.15;352.52;;;;;;;;;;5028769;28;20022;-84
2021/05/16 02:57:33;;;;;;;534.13;345.08;;;;;;;;;;5047055;28;20544;-86
2021/05/16 02:59:59;;;;;;;527.83;333.83;;;;;;;;;;5031584;28;20021;-82
2021/05/16 03:02:25;;;;;;;535.33;339.30;;;;;;;;;;5027746;28;20751;-83
2021/05/16 03:04:51;;;;;;;529.80;344.13;;;;;;;;;;5047863;28;20031;-83
2021/05/16 03:07:17;;;;;;;535.75;347.05;;;;;;;;;;5030756;28;20056;-83
2021/05/16 03:09:43;;;;;;;556.78;357.38;;;;;;;;;;5036876;28;20563;-82
2021/05/16 03:12:09;;;;;;;524.25;335.65;;;;;;;;;;5031869;28;20041;-82
2021/05/16 03:14:35;;;;;;;547.22;349.95;;;;;;;;;;5032275;28;20037;-83
2021/05/16 03:17:01;;;;;;;552.72;358.58;;;;;;;;;;5035213;28;20029;-80
2021/05/16 03:19:27;;;;;;;519.25;323.15;;;;;;;;;;5051983;28;20473;-83
2021/05/16 03:21:54;;;;;;;515.50;325.25;;;;;;;;;;5033574;28;20036;-81
2021/05/16 03:24:20;;;;;;;535.47;343.33;;;;;;;;;;5034751;28;20070;-82
2021/05/16 03:26:46;;;;;;;525.42;338.98;;;;;;;;;;5031830;28;20409;-79
2021/05/16 03:29:12;;;;;;;527.50;337.20;;;;;;;;;;5051320;28;20033;-80
2021/05/16 03:31:38;;;;;;;513.88;336.40;;;;;;;;;;5031902;28;20523;-81
2021/05/16 03:34:05;;;;;;;516.67;335.15;;;;;;;;;;5033861;28;20033;-82
2021/05/16 03:36:31;;;;;;;508.17;324.98;;;;;;;;;;5052803;28;20091;-82
2021/05/16 03:38:57;;;;;;;505.63;323.92;;;;;;;;;;5027951;28;20064;-82
2021/05/16 03:41:23;;;;;;;508.95;333.20;;;;;;;;;;5028708;28;20087;-79
2021/05/16 03:43:49;;;;;;;515.90;337.48;;;;;;;;;;5019738;28;20032;-82
2021/05/16 03:46:16;;;;;;;505.30;327.58;;;;;;;;;;5033650;28;20034;-81
2021/05/16 03:48:42;;;;;;;541.67;346.58;;;;;;;;;;5026266;28;20037;-81
2021/05/16 03:51:10;;;;;;;505.05;323.88;;;;;;;;;;5033123;28;20484;-77
2021/05/16 03:53:37;;;;;;;506.08;332.80;;;;;;;;;;5032000;28;20121;-78
2021/05/16 03:56:06;;;;;;;576.17;348.67;;;;;;;;;;5034378;28;20547;-78
2021/05/16 03:58:33;;;;;;;509.98;331.30;;;;;;;;;;5041594;28;20021;-76
2021/05/16 04:00:59;;;;;;;527.30;342.85;;;;;;;;;;5058173;28;20048;-78
2021/05/16 04:03:25;;;;;;;507.73;329.73;;;;;;;;;;5029103;28;20381;-79
2021/05/16 04:05:51;;;;;;;504.42;324.98;;;;;;;;;;5052044;28;20469;-78
2021/05/16 04:08:17;;;;;;;501.05;329.88;;;;;;;;;;5034138;28;20116;-78
2021/05/16 04:10:43;;;;;;;493.98;323.67;;;;;;;;;;5042136;28;20036;-77
2021/05/16 04:13:09;;;;;;;494.23;321.52;;;;;;;;;;5019150;28;20021;-77
2021/05/16 04:15:35;;;;;;;492.80;318.77;;;;;;;;;;5021251;28;20410;-78
2021/05/16 04:18:01;;;;;;;499.13;325.92;;;;;;;;;;5023349;28;20029;-77
2021/05/16 04:20:27;;;;;;;499.90;324.17;;;;;;;;;;5031366;28;20044;-78
2021/05/16 04:22:53;;;;;;;492.38;331.50;;;;;;;;;;5032027;28;20029;-77
2021/05/16 04:25:19;;;;;;;491.05;318.67;;;;;;;;;;5033551;28;20021;-77
2021/05/16 04:27:45;;;;;;;499.67;325.98;;;;;;;;;;5050425;28;20381;-78
2021/05/16 04:30:11;;;;;;;489.08;318.85;;;;;;;;;;5029527;28;20048;-79
2021/05/16 04:32:37;;;;;;;492.00;326.50;;;;;;;;;;5023885;28;20037;-77
2021/05/16 04:35:03;;;;;;;486.33;322.33;;;;;;;;;;5030610;28;20040;-76
2021/05/16 04:37:29;;;;;;;488.33;317.40;;;;;;;;;;5032099;28;20031;-78
2021/05/16 04:39:55;;;;;;;479.85;322.70;;;;;;;;;;5049421;28;20028;-76
2021/05/16 04:42:21;;;;;;;488.88;328.30;;;;;;;;;;5027483;28;20457;-77
2021/05/16 04:44:47;;;;;;;485.17;321.90;;;;;;;;;;5032099;28;20075;-76
2021/05/16 04:47:13;;;;;;;481.75;318.50;;;;;;;;;;5033323;28;20039;-77
2021/05/16 04:49:39;;;;;;;495.95;321.33;;;;;;;;;;5031323;28;20548;-75
2021/05/16 04:52:05;;;;;;;490.90;317.42;;;;;;;;;;5029594;28;20025;-76
2021/05/16 04:54:31;;;;;;;493.58;321.45;;;;;;;;;;5030405;28;20448;-75
2021/05/16 04:56:57;;;;;;;481.25;317.58;;;;;;;;;;5032172;28;20037;-75
2021/05/16 04:59:23;;;;;;;479.92;317.17;;;;;;;;;;5050535;28;20071;-76
2021/05/16 05:01:49;;;;;;;488.25;321.38;;;;;;;;;;5011180;28;20738;-75
2021/05/16 05:04:15;;;;;;;484.75;321.88;;;;;;;;;;5046962;28;20021;-77
2021/05/16 05:06:41;;;;;;;501.75;327.67;;;;;;;;;;5022267;28;20033;-75
2021/05/16 05:09:08;;;;;;;495.98;322.50;;;;;;;;;;5032404;28;20033;-77
2021/05/16 05:11:34;;;;;;;511.77;337.00;;;;;;;;;;5037536;28;20103;-76
2021/05/16 05:14:00;;;;;;;507.05;327.13;;;;;;;;;;5024801;28;20032;-75
2021/05/16 05:16:26;;;;;;;505.83;331.63;;;;;;;;;;5031751;28;20480;-76
2021/05/16 05:18:52;;;;;;;500.63;330.45;;;;;;;;;;5050619;28;20025;-76
2021/05/16 05:21:18;;;;;;;511.05;330.17;;;;;;;;;;5050033;28;20104;-76
2021/05/16 05:23:44;;;;;;;506.08;325.67;;;;;;;;;;5029564;28;20055;-76
2021/05/16 05:26:10;;;;;;;517.60;336.83;;;;;;;;;;5041943;28;20067;-77
2021/05/16 05:28:36;;;;;;;522.53;340.38;;;;;;;;;;5065019;28;20040;-75
2021/05/16 05:31:03;;;;;;;515.47;329.55;;;;;;;;;;5031080;28;20025;-76
2021/05/16 05:33:30;;;;;;;510.10;326.50;;;;;;;;;;5029633;28;20033;-75
2021/05/16 05:35:56;;;;;;;515.95;334.50;;;;;;;;;;5046725;28;20043;-76
2021/05/16 05:38:22;;;;;;;510.58;329.13;;;;;;;;;;5032508;28;20495;-77
2021/05/16 05:40:48;;;;;;;524.92;344.95;;;;;;;;;;5026675;28;20465;-75
2021/05/16 05:43:14;;;;;;;527.05;343.25;;;;;;;;;;5047424;28;20012;-75
2021/05/16 05:45:41;;;;;;;519.88;334.77;;;;;;;;;;5022748;28;20494;-76
2021/05/16 05:48:07;;;;;;;515.58;337.00;;;;;;;;;;5025684;28;20042;-75
2021/05/16 05:50:32;;;;;;;503.90;330.08;;;;;;;;;;5024313;28;20040;-76
2021/05/16 05:53:02;;;;;;;529.50;340.85;;;;;;;;;;5048557;28;20037;-75
2021/05/16 05:55:28;;;;;;;519.30;337.73;;;;;;;;;;5027345;28;20560;-75
2021/05/16 05:57:54;;;;;;;516.58;336.10;;;;;;;;;;5049772;28;20388;-78
2021/05/16 06:00:20;;;;;;;507.45;331.38;;;;;;;;;;5039171;28;20029;-77
2021/05/16 06:02:46;;;;;;;635.53;409.67;;;;;;;;;;5033246;28;20384;-76
2021/05/16 06:05:13;;;;;;;551.75;355.13;;;;;;;;;;5038440;28;20021;-75
2021/05/16 06:07:39;;;;;;;568.67;368.20;;;;;;;;;;5034248;28;20670;-76
2021/05/16 06:10:05;;;;;;;589.22;385.40;;;;;;;;;;5034622;28;20052;-75
2021/05/16 06:12:31;;;;;;;586.20;387.00;;;;;;;;;;5034781;28;20033;-75
2021/05/16 06:14:59;;;;;;;595.80;385.48;;;;;;;;;;5052652;28;20025;-77
2021/05/16 06:17:26;;;;;;;591.80;380.17;;;;;;;;;;5034715;28;20017;-77
2021/05/16 06:19:52;;;;;;;528.92;346.63;;;;;;;;;;5034677;28;20116;-77
2021/05/16 06:22:18;;;;;;;527.20;335.70;;;;;;;;;;5034781;28;20029;-76
2021/05/16 06:24:44;;;;;;;559.67;362.85;;;;;;;;;;5052343;28;20074;-75
2021/05/16 06:27:10;;;;;;;542.70;352.63;;;;;;;;;;5052213;28;20025;-75
2021/05/16 06:29:36;;;;;;;568.47;364.95;;;;;;;;;;5034674;28;20029;-75
2021/05/16 06:32:02;;;;;;;533.25;347.35;;;;;;;;;;5021954;28;20140;-77
2021/05/16 06:34:28;;;;;;;537.72;342.73;;;;;;;;;;5051716;28;20017;-75
2021/05/16 06:36:54;;;;;;;558.72;368.77;;;;;;;;;;5034049;28;20395;-76
2021/05/16 06:39:21;;;;;;;546.58;350.55;;;;;;;;;;5032931;28;20013;-76
2021/05/16 06:41:47;;;;;;;532.65;338.13;;;;;;;;;;5050663;28;20130;-76
2021/05/16 06:44:13;;;;;;;512.67;334.38;;;;;;;;;;5054306;28;20357;-75
2021/05/16 06:46:39;;;;;;;537.22;339.23;;;;;;;;;;5034251;28;20033;-75
2021/05/16 06:49:05;;;;;;;535.55;343.35;;;;;;;;;;5025922;28;20076;-76
2021/05/16 06:51:31;;;;;;;523.35;344.17;;;;;;;;;;5021976;28;20393;-75
2021/05/16 06:53:57;;;;;;;518.47;347.65;;;;;;;;;;5056065;28;20427;-75
2021/05/16 06:56:23;;;;;;;511.80;341.65;;;;;;;;;;5037590;28;20037;-75
2021/05/16 06:58:49;;;;;;;493.55;331.48;;;;;;;;;;5038092;28;20065;-76
2021/05/16 07:01:15;;;;;;;490.05;332.25;;;;;;;;;;5027909;28;20017;-76
2021/05/16 07:03:42;;;;;;;489.90;331.25;;;;;;;;;;5036219;28;20029;-76
2021/05/16 07:06:08;;;;;;;490.50;328.77;;;;;;;;;;5037427;28;20102;-75
2021/05/16 07:08:34;;;;;;;488.90;326.23;;;;;;;;;;5036759;28;20603;-76
2021/05/16 07:11:01;;;;;;;508.17;330.60;;;;;;;;;;5032693;28;20048;-78
2021/05/16 07:13:27;;;;;;;493.20;327.10;;;;;;;;;;5035584;28;20040;-76
2021/05/16 07:15:53;;;;;;;497.73;329.50;;;;;;;;;;5037099;28;20051;-78
2021/05/16 07:18:19;;;;;;;501.55;333.25;;;;;;;;;;5036280;28;20037;-78
2021/05/16 07:20:45;;;;;;;494.27;337.45;;;;;;;;;;5036941;28;20029;-77
2021/05/16 07:23:11;;;;;;;486.00;335.42;;;;;;;;;;5037406;28;20126;-79
2021/05/16 07:25:37;;;;;;;490.70;340.60;;;;;;;;;;5031749;28;20123;-80
2021/05/16 07:28:03;;;;;;;489.98;329.92;;;;;;;;;;5050897;28;20044;-79
2021/05/16 07:30:29;;;;;;;488.33;339.73;;;;;;;;;;5027771;28;20040;-79
2021/05/16 07:32:55;;;;;;;501.50;345.02;;;;;;;;;;5027056;28;20021;-79
2021/05/16 07:35:21;;;;;;;486.30;341.10;;;;;;;;;;5029656;28;20045;-79
2021/05/16 07:37:47;;;;;;;487.05;342.83;;;;;;;;;;5033226;28;20380;-81
2021/05/16 07:40:13;;;;;;;505.13;354.23;;;;;;;;;;5052036;28;20047;-78
2021/05/16 07:42:39;;;;;;;489.20;344.17;;;;;;;;;;5034234;28;20033;-77
2021/05/16 07:45:06;;;;;;;486.40;343.08;;;;;;;;;;5030770;28;20025;-81
2021/05/16 07:47:33;;;;;;;493.20;349.08;;;;;;;;;;5021625;28;20021;-76
2021/05/16 07:49:59;;;;;;;508.98;362.25;;;;;;;;;;5024630;28;20084;-77
2021/05/16 07:52:25;;;;;;;496.35;356.15;;;;;;;;;;5045853;28;20021;-79
2021/05/16 07:54:51;;;;;;;492.30;353.60;;;;;;;;;;5025466;28;20072;-78
2021/05/16 07:57:17;;;;;;;496.25;359.98;;;;;;;;;;5042263;28;20099;-76
2021/05/16 07:59:43;;;;;;;500.05;355.35;;;;;;;;;;5026206;28;20123;-77
2021/05/16 08:02:09;;;;;;;496.02;356.30;;;;;;;;;;5047084;28;20064;-77
2021/05/16 08:04:35;;;;;;;498.75;364.90;;;;;;;;;;5021970;28;20404;-78
2021/05/16 08:07:01;;;;;;;491.85;361.70;;;;;;;;;;5031830;28;20036;-77
2021/05/16 08:09:27;;;;;;;508.15;373.13;;;;;;;;;;5023259;28;20021;-78
2021/05/16 08:11:53;;;;;;;496.10;362.70;;;;;;;;;;5029325;28;20028;-77
2021/05/16 08:14:19;;;;;;;496.85;359.77;;;;;;;;;;5032416;28;20036;-80
2021/05/16 08:16:45;;;;;;;499.35;359.88;;;;;;;;;;5030628;28;20574;-75
2021/05/16 08:19:11;;;;;;;500.70;364.65;;;;;;;;;;5028342;28;20388;-78
2021/05/16 08:21:38;;;;;;;500.02;366.33;;;;;;;;;;5041427;28;20037;-78
2021/05/16 08:24:05;;;;;;;500.77;367.80;;;;;;;;;;5044220;28;20021;-78
2021/05/16 08:26:33;;;;;;;508.13;372.02;;;;;;;;;;5026564;28;20099;-80
2021/05/16 08:28:59;;;;;;;503.52;368.35;;;;;;;;;;5029264;28;20512;-79
2021/05/16 08:31:25;;;;;;;499.60;368.05;;;;;;;;;;5031904;28;20017;-76
2021/05/16 08:33:50;;;;;;;511.35;381.63;;;;;;;;;;5031353;28;20328;-79
2021/05/16 08:36:18;;;;;;;514.55;381.90;;;;;;;;;;5026651;28;20112;-80
2021/05/16 08:38:44;;;;;;;502.70;373.90;;;;;;;;;;5024043;28;20056;-81
2021/05/16 08:41:13;;;;;;;527.80;389.92;;;;;;;;;;5039837;28;20053;-78
2021/05/16 08:43:39;;;;;;;559.30;377.77;;;;;;;;;;5014693;28;20033;-78
2021/05/16 08:46:08;;;;;;;507.02;384.08;;;;;;;;;;5030454;28;20074;-78
2021/05/16 08:48:38;;;;;;;511.48;375.70;;;;;;;;;;5034655;28;20261;-78
2021/05/16 08:51:04;;;;;;;514.97;379.50;;;;;;;;;;5023678;28;20025;-76
2021/05/16 08:53:30;;;;;;;527.88;390.15;;;;;;;;;;5023774;28;20285;-77
2021/05/16 08:55:56;;;;;;;515.60;371.50;;;;;;;;;;5032326;28;20113;-77
2021/05/16 08:58:22;;;;;;;505.83;364.98;;;;;;;;;;5046343;28;20025;-78
2021/05/16 09:00:48;;;;;;;519.25;381.40;;;;;;;;;;5019590;28;20032;-78
2021/05/16 09:03:16;;;;;;;510.50;378.90;;;;;;;;;;5019714;28;20021;-80
2021/05/16 09:05:42;;;;;;;504.92;378.45;;;;;;;;;;5033448;28;20025;-78
2021/05/16 09:08:11;;;;;;;507.27;385.75;;;;;;;;;;5048110;28;20261;-79
2021/05/16 09:10:38;;;;;;;510.03;389.37;;;;;;;;;;5045705;28;20033;-80
2021/05/16 09:13:11;;;;;;;505.83;382.08;;;;;;;;;;5031386;28;20029;-80
2021/05/16 09:15:37;;;;;;;499.33;374.25;;;;;;;;;;5031794;28;20476;-76
2021/05/16 09:18:03;;;;;;;501.80;375.40;;;;;;;;;;5033345;28;20021;-80
2021/05/16 09:20:29;;;;;;;495.50;364.38;;;;;;;;;;5031781;28;20017;-77
2021/05/16 09:22:55;;;;;;;502.25;362.33;;;;;;;;;;5022020;28;20025;-81
2021/05/16 09:25:31;;;;;;;496.85;356.48;;;;;;;;;;5036847;28;20044;-78
2021/05/16 09:28:09;;;;;;;495.23;352.90;;;;;;;;;;5032437;28;20021;-78
2021/05/16 09:30:41;;;;;;;529.30;361.88;;;;;;;;;;5030484;28;20378;-78
2021/05/16 09:33:08;;;;;;;498.13;370.50;;;;;;;;;;5032512;28;20018;-78
2021/05/16 09:35:47;;;;;;;489.85;371.33;;;;;;;;;;5021374;28;20017;-78
2021/05/16 09:38:20;;;;;;;495.60;375.20;;;;;;;;;;5030106;28;20111;-79
2021/05/16 09:40:58;;;;;;;485.98;363.83;;;;;;;;;;5048005;28;20017;-79
2021/05/16 09:43:28;;;;;;;486.45;370.25;;;;;;;;;;5023063;28;20029;-77
2021/05/16 09:45:54;;;;;;;;;;;;;;;;;;5024039;28;20029;-78
2021/05/16 09:48:38;;;;;;;482.60;358.55;;;;;;;;;;5031006;28;19931;-80
2021/05/16 09:51:18;;;;;;;490.40;375.17;;;;;;;;;;5030218;28;20075;-79
2021/05/16 09:53:56;;;;;;;489.00;370.50;;;;;;;;;;5032272;28;20090;-77
2021/05/16 09:56:22;;;;;;;476.05;357.48;;;;;;;;;;5048109;28;20037;-76
2021/05/16 09:58:49;;;;;;;478.98;353.15;;;;;;;;;;5033021;28;20071;-76
2021/05/16 10:01:16;;;;;;;474.55;345.30;;;;;;;;;;5051236;28;20024;-75
2021/05/16 10:03:43;;;;;;;480.77;346.48;;;;;;;;;;5033235;28;20032;-76
2021/05/16 10:06:09;;;;;;;472.73;337.58;;;;;;;;;;5034369;28;20025;-76
2021/05/16 10:08:36;;;;;;;472.65;334.65;;;;;;;;;;5052745;28;20033;-75
2021/05/16 10:11:02;;;;;;;479.73;344.10;;;;;;;;;;5052761;28;20079;-75
2021/05/16 10:13:29;;;;;;;474.23;333.50;;;;;;;;;;5030813;28;20028;-76
2021/05/16 10:15:56;;;;;;;480.48;343.77;;;;;;;;;;5033582;28;20029;-80
2021/05/16 10:18:25;;;;;;;475.17;341.38;;;;;;;;;;5033277;28;20483;-81
2021/05/16 10:20:51;;;;;;;468.85;331.35;;;;;;;;;;5033913;28;20056;-79
2021/05/16 10:23:34;;;;;;;466.92;329.77;;;;;;;;;;5034968;28;20106;-78
2021/05/16 10:26:14;;;;;;;468.02;326.40;;;;;;;;;;5033557;28;20098;-80
2021/05/16 10:29:01;;;;;;;464.13;315.92;;;;;;;;;;5032823;28;20032;-80
2021/05/16 10:31:39;;;;;;;471.52;321.13;;;;;;;;;;5015068;28;20029;-81
2021/05/16 10:34:24;;;;;;;473.05;326.65;;;;;;;;;;5027452;28;20036;-82
2021/05/16 10:36:50;;;;;;;470.40;319.35;;;;;;;;;;5031830;28;20061;-80
2021/05/16 10:39:35;;;;;;;475.55;323.92;;;;;;;;;;5031169;28;20068;-79
2021/05/16 10:42:10;;;;;;;466.48;313.67;;;;;;;;;;5051197;28;20080;-80
2021/05/16 10:50:10;;;;;;;465.13;319.15;;;;;;;;;;5049320;28;20029;-80
2021/05/16 10:52:36;;;;;;;470.95;325.38;;;;;;;;;;5033470;28;20017;-81
2021/05/16 10:55:04;;;;;;;472.83;324.50;;;;;;;;;;5033041;28;20029;-81
2021/05/16 10:57:58;;;;;;;475.88;332.52;;;;;;;;;;5033948;28;20044;-81
2021/05/16 11:00:25;;;;;;;476.05;335.67;;;;;;;;;;5029574;28;20385;-81
2021/05/16 11:02:58;;;;;;;483.70;341.85;;;;;;;;;;5031757;28;20068;-81
2021/05/16 11:08:29;;;;;;;476.90;330.83;;;;;;;;;;5049826;28;20029;-81
2021/05/16 11:10:56;;;;;;;476.08;329.65;;;;;;;;;;5001222;28;20037;-81
2021/05/16 11:13:31;;;;;;;486.63;337.15;;;;;;;;;;5016021;28;20025;-81
2021/05/16 11:15:58;;;;;;;484.95;337.90;;;;;;;;;;5033187;28;20108;-80
2021/05/16 11:18:24;;;;;;;486.17;340.17;;;;;;;;;;5032327;28;20033;-78
2021/05/16 11:20:52;;;;;;;474.92;327.70;;;;;;;;;;5051225;28;20028;-80
2021/05/16 11:23:22;;;;;;;476.05;324.85;;;;;;;;;;5033238;28;20025;-83
2021/05/16 11:26:03;;;;;;;474.00;321.27;;;;;;;;;;5026836;28;20083;-85
2021/05/16 11:28:30;;;;;;;478.38;326.60;;;;;;;;;;5033436;28;20033;-83
2021/05/16 11:30:57;;;;;;;483.80;326.33;;;;;;;;;;5036868;28;21633;-83
2021/05/16 11:33:27;;;;;;;477.17;322.42;;;;;;;;;;5031435;28;20436;-84
2021/05/16 11:35:53;;;;;;;474.55;323.00;;;;;;;;;;5030015;28;20485;-82
2021/05/16 11:38:29;;;;;;;477.08;321.55;;;;;;;;;;5034818;28;20086;-82
2021/05/16 11:40:56;;;;;;;472.77;318.20;;;;;;;;;;5038114;28;20017;-82
2021/05/16 11:43:29;;;;;;;472.33;316.60;;;;;;;;;;5037858;28;20021;-84
2021/05/16 11:45:55;;;;;;;480.05;325.45;;;;;;;;;;5028885;28;20024;-84
2021/05/16 11:48:34;;;;;;;475.27;328.05;;;;;;;;;;5038255;28;20102;-84
2021/05/16 11:51:08;;;;;;;477.50;324.92;;;;;;;;;;5037893;28;20124;-85
2021/05/16 11:53:34;;;;;;;489.63;334.67;;;;;;;;;;5037961;28;20412;-85
2021/05/16 11:56:05;;;;;;;484.75;332.65;;;;;;;;;;5029101;28;20033;-85
2021/05/16 11:58:32;;;;;;;483.25;327.73;;;;;;;;;;5026035;28;20032;-85
2021/05/16 12:00:58;;;;;;;484.90;336.20;;;;;;;;;;5034010;28;20033;-84
2021/05/16 12:03:24;;;;;;;490.02;349.42;;;;;;;;;;5046693;28;20102;-83
2021/05/16 12:05:50;;;;;;;497.10;367.42;;;;;;;;;;5022031;28;20025;-82
2021/05/16 12:08:16;;;;;;;505.60;409.55;;;;;;;;;;5026129;28;20027;-83
2021/05/16 12:10:42;;;;;;;505.30;421.42;;;;;;;;;;5037450;28;20746;-80
2021/05/16 12:13:21;;;;;;;508.02;443.35;;;;;;;;;;5037077;28;20021;-83
2021/05/16 12:15:48;;;;;;;510.75;454.02;;;;;;;;;;5031550;28;20036;-82
2021/05/16 12:18:23;;;;;;;512.08;455.52;;;;;;;;;;5069694;28;20024;-81
2021/05/16 12:21:02;;;;;;;517.28;460.52;;;;;;;;;;5052683;28;20021;-83
2021/05/16 12:23:28;;;;;;;517.22;460.35;;;;;;;;;;5020962;28;20029;-84
2021/05/16 12:25:54;;;;;;;511.73;453.67;;;;;;;;;;5028593;28;20036;-83
2021/05/16 12:28:20;;;;;;;520.00;460.75;;;;;;;;;;5037337;28;20025;-86
2021/05/16 12:30:47;;;;;;;536.95;478.25;;;;;;;;;;5038401;28;20028;-83
2021/05/16 12:33:15;;;;;;;542.33;484.05;;;;;;;;;;5049693;28;20031;-84
2021/05/16 12:35:43;;;;;;;640.35;574.17;;;;;;;;;;5022053;28;20021;-79
2021/05/16 12:38:14;;;;;;;649.28;583.83;;;;;;;;;;5022427;28;20021;-79
2021/05/16 12:40:40;;;;;;;;;;;;;;;;;;5033331;28;20379;-79
2021/05/16 12:43:07;;;;;;;606.20;542.55;;;;;;;;;;5033386;28;19981;-79
2021/05/16 12:45:33;;;;;;;604.70;540.35;;;;;;;;;;5018226;28;20113;-76
2021/05/16 12:48:04;;;;;;;575.03;507.65;;;;;;;;;;5020793;28;20033;-79
2021/05/16 12:50:31;;;;;;;660.00;567.22;;;;;;;;;;5035678;28;20060;-78
2021/05/16 12:53:16;;;;;;;562.33;459.02;;;;;;;;;;5036250;28;20098;-80
2021/05/16 12:55:42;;;;;;;678.67;549.60;;;;;;;;;;5036840;28;20025;-77
2021/05/16 12:58:16;;;;;;;658.65;520.30;;;;;;;;;;5036308;28;20041;-78
2021/05/16 13:00:50;;;;;;;657.22;497.92;;;;;;;;;;5024079;28;20093;-81
2021/05/16 13:03:16;;;;;;;673.20;505.90;;;;;;;;;;5029697;28;20018;-79
2021/05/16 13:05:46;;;;;;;657.20;492.25;;;;;;;;;;5047454;28;20032;-80
2021/05/16 13:08:29;;;;;;;683.92;508.13;;;;;;;;;;5034544;28;20029;-79
2021/05/16 13:10:58;;;;;;;655.25;482.02;;;;;;;;;;5033697;28;20033;-78
2021/05/16 13:13:31;;;;;;;678.90;506.85;;;;;;;;;;5025820;28;20067;-78
2021/05/16 13:16:01;;;;;;;667.92;503.05;;;;;;;;;;5053750;28;20712;-76
2021/05/16 13:18:34;;;;;;;683.97;514.25;;;;;;;;;;5032302;28;20022;-77
2021/05/16 13:21:15;;;;;;;679.17;495.40;;;;;;;;;;5041988;28;20025;-81
2021/05/16 13:23:46;;;;;;;652.22;488.75;;;;;;;;;;5020401;28;20033;-82
2021/05/16 13:26:12;;;;;;;666.72;490.45;;;;;;;;;;5022799;28;20037;-82
2021/05/16 13:28:38;;;;;;;687.10;498.40;;;;;;;;;;5036159;28;20055;-81
2021/05/16 13:31:06;;;;;;;697.95;500.73;;;;;;;;;;5036291;28;20101;-82
2021/05/16 13:33:36;;;;;;;670.13;480.63;;;;;;;;;;5021959;28;20063;-83
2021/05/16 13:36:07;;;;;;;661.65;475.80;;;;;;;;;;5049141;28;20102;-82
2021/05/16 13:38:33;;;;;;;;;;;;;;;;;;5054394;28;20021;-81
2021/05/16 13:41:07;;;;;;;638.70;445.15;;;;;;;;;;5034307;28;19999;-83
2021/05/16 13:43:33;;;;;;;651.88;459.67;;;;;;;;;;5035317;28;20029;-85
2021/05/16 13:45:59;;;;;;;647.38;458.00;;;;;;;;;;5034311;28;20388;-84
2021/05/16 13:48:25;;;;;;;678.38;492.50;;;;;;;;;;5035398;28;20115;-84
2021/05/16 13:50:51;;;;;;;602.85;433.75;;;;;;;;;;5029616;28;20409;-84
2021/05/16 13:53:17;;;;;;;622.70;460.05;;;;;;;;;;5025204;28;20041;-82
2021/05/16 13:55:43;;;;;;;647.38;488.02;;;;;;;;;;5027831;28;20033;-82
2021/05/16 13:58:09;;;;;;;630.63;486.55;;;;;;;;;;5045012;28;20423;-82
2021/05/16 14:00:36;;;;;;;614.72;479.73;;;;;;;;;;5027417;28;20083;-82
2021/05/16 14:03:02;;;;;;;605.78;472.88;;;;;;;;;;5025783;28;20056;-80
2021/05/16 14:05:28;;;;;;;597.88;465.00;;;;;;;;;;5027522;28;20028;-81